Bellville, South Africa
Current Conditions -  °F | °C
As of 8:00 PM on Monday 22 Dec 2014 (Local Time) from FACT Reporting Station
Few Clouds Few Clouds  
Wind Chill: 68°   Ceiling: Unl
Heat Index: 68°   Visibility: 6mi
Dew Point: 55°   Wind: 15mph
Humidity: 64%   Direction: 180°S
Pressure: 29.97"   Gusts: NA
Location:  33.88°S, 18.6°E
Report Text: FACT 221800Z 18013KT 9999 FEW025 20/13 Q1015 NOSIG
Loading
Personal Weather Stations






























Interactive Weather Map New forecast layout! Learn more

10-Day Weather Forecast

Advertisements
Track Severe Weather on mobile